Arnett, West Virginia
Current Conditions -  °F | °C
As of 5:51 AM on Thursday 23 Oct 2014 (Local Time) from KBKW Reporting Station
Overcast Overcast  
Wind Chill: 36°   Ceiling: 1000
Heat Index: 42°   Visibility: 10mi
Dew Point: 38°   Wind: 10mph
Humidity: 85%   Direction: 340°NNW
Pressure: 30.15"   Gusts: NA
Location:  37.83°N, 81.43°W
Report Text: KBKW 230951Z AUTO 34009KT 10SM OVC010 06/03 A3015 RMK AO2 SLP222 T00560033 TSNO
Loading
Personal Weather Stations






























Interactive Weather Map
Tropical Storm Tracking
New forecast layout! Learn more

10-Day Weather Forecast

Advertisements
Track Severe Weather on mobile